Time;durP1;ratioP1;P1;durP2;ratioP2;P2;SDS_P1;SDS_P2;PMS_P1;PMS_P2;Temp;Humidity;BMP_temperature;BMP_pressure;BME280_temperature;BME280_humidity;BME280_pressure;Samples;Min_cycle;Max_cycle;Signal;HPM_P1;HPM_P2
2022/11/10 00:01:12;;;;;;;38.17;18.67;;;;;;;8.11;85.84;98715.59;1605140;89;25669;-64
2022/11/10 00:03:41;;;;;;;30.27;15.58;;;;;;;8.12;85.54;98718.56;1605860;89;27330;-64
2022/11/10 00:06:10;;;;;;;28.90;14.58;;;;;;;8.15;85.65;98723.44;1605321;89;25161;-64
2022/11/10 00:08:36;;;;;;;39.40;17.70;;;;;;;8.19;85.70;98717.38;1605640;89;25784;-65
2022/11/10 00:11:05;;;;;;;33.73;16.73;;;;;;;8.20;85.57;98725.84;1605171;89;25789;-64
2022/11/10 00:16:59;;;;;;;39.27;18.67;;;;;;;8.21;85.47;98715.17;1605387;89;25482;-64
2022/11/10 00:18:50;;;;;;;31.30;15.58;;;;;;;8.23;85.55;98717.86;1605006;89;25653;-64
2022/11/10 00:21:17;;;;;;;34.60;17.48;;;;;;;8.21;85.62;98711.91;1605195;89;25732;-64
2022/11/10 00:23:46;;;;;;;31.87;16.55;;;;;;;8.20;85.55;98715.72;1605382;89;25701;-64
2022/11/10 00:26:17;;;;;;;35.38;15.25;;;;;;;8.16;85.68;98717.43;1605161;89;25520;-64
2022/11/10 00:28:43;;;;;;;;;;;;;;;8.16;85.94;98717.43;1607936;89;28137;-64
2022/11/10 00:31:11;;;;;;;30.75;15.43;;;;;;;8.13;86.03;98717.48;1605315;88;25451;-64
2022/11/10 00:33:41;;;;;;;33.30;16.90;;;;;;;8.14;85.82;98712.81;1605178;89;25614;-64
2022/11/10 00:36:08;;;;;;;31.25;16.37;;;;;;;8.13;86.10;98716.66;1605332;89;25737;-64
2022/11/10 00:38:34;;;;;;;38.67;17.77;;;;;;;8.13;85.84;98714.75;1605192;89;25637;-64
2022/11/10 00:41:01;;;;;;;35.35;18.32;;;;;;;8.14;85.66;98719.09;1605344;89;27613;-64
2022/11/10 00:43:29;;;;;;;29.25;15.38;;;;;;;8.14;85.81;98723.73;1604986;89;25584;-64
2022/11/10 00:45:56;;;;;;;31.65;16.85;;;;;;;8.13;85.94;98727.03;1605127;89;25767;-64
2022/11/10 00:48:23;;;;;;;30.70;14.25;;;;;;;8.16;85.80;98728.34;1605292;89;26343;-64
2022/11/10 00:50:50;;;;;;;24.77;12.47;;;;;;;8.18;85.77;98732.15;1605294;89;25519;-64
2022/11/10 00:53:17;;;;;;;33.28;16.75;;;;;;;8.18;85.83;98733.52;1605429;89;27474;-64
2022/11/10 00:55:44;;;;;;;35.23;17.05;;;;;;;8.16;85.52;98735.17;1580339;89;25783;-64
2022/11/10 00:58:11;;;;;;;25.45;12.33;;;;;;;8.13;85.74;98734.40;1605099;89;25465;-64
2022/11/10 01:00:38;;;;;;;31.45;16.62;;;;;;;8.10;85.94;98739.08;1605106;89;25774;-64
2022/11/10 01:03:04;;;;;;;32.73;16.32;;;;;;;8.08;85.82;98740.74;1605343;89;25535;-64
2022/11/10 01:05:37;;;;;;;31.95;15.32;;;;;;;8.09;86.02;98745.66;1605076;89;27401;-64
2022/11/10 01:08:04;;;;;;;31.30;16.35;;;;;;;8.07;85.75;98743.22;1605437;89;25724;-64
2022/11/10 01:10:30;;;;;;;36.85;17.23;;;;;;;8.06;85.72;98740.78;1605057;89;25478;-64
2022/11/10 01:12:56;;;;;;;32.30;15.48;;;;;;;8.07;85.69;98756.87;1604972;89;25858;-64
2022/11/10 01:15:23;;;;;;;30.75;16.07;;;;;;;8.07;85.83;98761.50;1605165;89;25679;-64
2022/11/10 01:17:50;;;;;;;30.30;15.03;;;;;;;8.08;85.83;98759.02;1605327;89;27443;-64
2022/11/10 01:20:17;;;;;;;33.95;15.40;;;;;;;8.08;85.85;98761.22;1605042;89;25669;-64
2022/11/10 01:22:43;;;;;;;40.40;15.93;;;;;;;8.11;85.83;98763.36;1601078;89;25708;-64
2022/11/10 01:25:09;;;;;;;50.50;19.35;;;;;;;8.13;85.80;98768.52;1600336;89;25777;-64
2022/11/10 01:27:36;;;;;;;31.90;15.53;;;;;;;8.11;85.75;98767.45;1600906;89;25697;-64
2022/11/10 01:30:04;;;;;;;32.33;17.45;;;;;;;8.09;85.91;98760.09;1600340;88;27428;-64
2022/11/10 01:32:31;;;;;;;41.95;19.12;;;;;;;8.06;85.95;98764.78;1600638;89;25642;-64
2022/11/10 01:34:57;;;;;;;43.78;16.82;;;;;;;8.01;86.05;98748.49;1600361;88;25663;-64
2022/11/10 01:37:24;;;;;;;28.75;14.35;;;;;;;7.99;86.26;98753.42;1600380;88;25724;-64
2022/11/10 01:39:50;;;;;;;41.77;17.32;;;;;;;7.99;86.24;98756.15;1600919;89;25466;-64
2022/11/10 01:42:30;;;;;;;35.88;16.93;;;;;;;8.01;86.02;98755.31;1600277;88;27531;-64
2022/11/10 01:45:25;;;;;;;38.78;18.20;;;;;;;8.01;85.74;98758.05;1598235;89;25471;-64
2022/11/10 01:48:02;;;;;;;34.25;14.78;;;;;;;8.01;85.83;98767.02;1600796;89;25746;-64
2022/11/10 01:50:34;;;;;;;28.07;13.90;;;;;;;8.03;86.02;98765.37;1600744;88;25710;-64
2022/11/10 01:53:04;;;;;;;39.88;16.23;;;;;;;8.06;86.03;98777.06;1600748;89;25718;-64
2022/11/10 01:55:34;;;;;;;42.48;20.30;;;;;;;8.08;85.99;98771.31;1600435;89;27446;-64
2022/11/10 01:58:01;;;;;;;34.73;17.57;;;;;;;8.11;85.72;98771.55;1600512;89;25745;-64
2022/11/10 02:00:28;;;;;;;28.38;14.63;;;;;;;8.13;85.73;98776.70;1600683;88;25718;-64
2022/11/10 02:03:03;;;;;;;30.72;15.05;;;;;;;8.16;85.80;98772.03;1600634;89;25793;-64
2022/11/10 02:05:30;;;;;;;34.53;16.07;;;;;;;8.16;85.86;98776.94;1599486;89;25575;-64
2022/11/10 02:07:57;;;;;;;25.97;12.80;;;;;;;8.17;85.70;98780.47;1600341;89;27472;-64
2022/11/10 02:10:23;;;;;;;45.23;19.85;;;;;;;8.15;86.09;98782.13;1600294;88;25725;-64
2022/11/10 02:12:50;;;;;;;40.92;17.23;;;;;;;8.16;85.82;98783.77;1600461;89;25472;-64
2022/11/10 02:15:18;;;;;;;37.08;18.25;;;;;;;8.18;85.97;98797.13;1600428;89;25866;-64
2022/11/10 02:17:47;;;;;;;36.60;18.30;;;;;;;8.21;85.81;98795.71;1601030;89;25473;-64
2022/11/10 02:20:17;;;;;;;31.12;15.30;;;;;;;8.23;85.67;98803.86;1600213;89;27495;-64
2022/11/10 02:22:44;;;;;;;35.68;18.45;;;;;;;8.27;85.72;98794.53;1605187;88;25527;-64
2022/11/10 02:25:16;;;;;;;30.50;14.83;;;;;;;8.31;85.55;98793.38;1607333;88;25502;-64
2022/11/10 02:27:42;;;;;;;33.53;16.52;;;;;;;8.31;85.84;98791.47;1607622;89;25712;-64
2022/11/10 02:30:11;;;;;;;32.13;15.70;;;;;;;8.32;85.67;98788.98;1607286;88;25779;-64
2022/11/10 02:32:37;;;;;;;33.40;16.07;;;;;;;8.34;85.72;98792.78;1607717;89;27507;-64
2022/11/10 02:35:05;;;;;;;26.33;12.43;;;;;;;8.32;85.69;98795.81;1607307;89;25733;-64
2022/11/10 02:37:32;;;;;;;28.62;14.15;;;;;;;8.31;85.83;98796.92;1607629;89;25742;-64
2022/11/10 02:39:58;;;;;;;32.90;15.90;;;;;;;8.31;85.82;98792.01;1607348;89;25708;-64
2022/11/10 02:42:25;;;;;;;36.08;16.57;;;;;;;8.31;85.79;98790.10;1607825;89;25448;-64
2022/11/10 02:44:52;;;;;;;32.93;15.55;;;;;;;8.31;85.97;98792.83;1607623;88;27434;-64
2022/11/10 02:47:19;;;;;;;37.78;17.10;;;;;;;8.33;85.90;98796.63;1607367;89;25534;-64
2022/11/10 02:49:46;;;;;;;34.20;16.77;;;;;;;8.36;85.65;98805.06;1607449;88;25756;-64
2022/11/10 02:52:12;;;;;;;39.30;19.12;;;;;;;8.38;85.78;98809.65;1607528;89;25772;-64
2022/11/10 02:54:38;;;;;;;42.58;19.87;;;;;;;8.43;85.67;98818.33;1607443;89;25632;-64
2022/11/10 02:57:05;;;;;;;40.58;18.52;;;;;;;8.47;85.57;98813.91;1607377;89;27434;-64
2022/11/10 02:59:31;;;;;;;38.30;18.07;;;;;;;8.49;85.54;98815.78;1607764;89;25693;-64
2022/11/10 03:01:57;;;;;;;37.75;17.55;;;;;;;8.52;85.58;98808.94;1607486;89;25642;-65
2022/11/10 03:04:24;;;;;;;37.70;17.48;;;;;;;8.54;85.64;98819.02;1607269;88;25734;-64
2022/11/10 03:06:50;;;;;;;36.50;16.85;;;;;;;8.55;85.65;98814.38;1607440;89;25490;-64
2022/11/10 03:09:17;;;;;;;42.75;19.12;;;;;;;8.55;85.72;98814.38;1607459;88;27480;-64
2022/11/10 03:11:43;;;;;;;39.75;19.05;;;;;;;8.52;85.74;98824.75;1607294;88;25705;-64
2022/11/10 03:14:10;;;;;;;36.20;16.97;;;;;;;8.51;86.03;98819.03;1607396;88;25543;-64
2022/11/10 03:16:36;;;;;;;35.92;17.57;;;;;;;8.53;85.79;98824.99;1607395;89;25452;-64
2022/11/10 03:19:03;;;;;;;33.83;14.40;;;;;;;8.54;85.87;98820.39;1607458;89;25543;-63
2022/11/10 03:21:29;;;;;;;38.20;19.00;;;;;;;8.56;85.92;98826.38;1607463;88;27407;-63
2022/11/10 03:23:56;;;;;;;42.62;19.80;;;;;;;8.58;85.66;98824.14;1605052;89;25520;-64
2022/11/10 03:26:22;;;;;;;40.43;18.62;;;;;;;8.62;85.51;98825.19;1605273;89;25467;-63
2022/11/10 03:28:49;;;;;;;35.33;17.95;;;;;;;8.65;85.48;98827.33;1605100;89;25772;-64
2022/11/10 03:31:16;;;;;;;31.57;15.23;;;;;;;8.69;85.65;98833.57;1605340;89;25672;-63
2022/11/10 03:33:42;;;;;;;35.68;17.57;;;;;;;8.69;85.76;98824.00;1605057;89;27329;-63
2022/11/10 03:36:09;;;;;;;35.68;17.42;;;;;;;8.68;85.69;98826.46;1605260;89;25487;-64
2022/11/10 03:38:35;;;;;;;30.08;15.45;;;;;;;8.66;85.76;98818.56;1605124;89;25688;-63
2022/11/10 03:41:02;;;;;;;32.50;15.83;;;;;;;8.65;85.79;98827.33;1605276;89;25908;-64
2022/11/10 03:43:28;;;;;;;38.98;18.10;;;;;;;8.64;85.91;98825.69;1605317;89;25593;-63
2022/11/10 03:45:55;;;;;;;34.45;16.55;;;;;;;8.65;85.83;98828.70;1605109;89;27465;-63
2022/11/10 03:48:21;;;;;;;36.15;18.02;;;;;;;8.68;85.66;98837.39;1605417;89;25673;-63
2022/11/10 03:50:47;;;;;;;35.98;17.07;;;;;;;8.72;85.56;98834.34;1605111;89;25484;-64
2022/11/10 03:53:14;;;;;;;28.83;15.03;;;;;;;8.73;85.49;98831.31;1605098;89;25790;-64
2022/11/10 03:55:40;;;;;;;34.10;16.57;;;;;;;8.75;85.67;98829.65;1605162;89;25648;-63
2022/11/10 03:58:06;;;;;;;36.23;17.87;;;;;;;8.75;85.50;98824.19;1605110;89;27461;-64
2022/11/10 04:00:33;;;;;;;32.20;17.37;;;;;;;8.75;85.67;98836.48;1604949;89;25660;-63
2022/11/10 04:03:00;;;;;;;36.93;16.95;;;;;;;8.75;85.47;98844.68;1605224;89;25507;-64
2022/11/10 04:11:03;;;;;;;35.98;16.97;;;;;;;8.70;85.96;98857.04;1605245;89;27459;-63
2022/11/10 04:16:14;;;;;;;31.65;15.10;;;;;;;8.68;86.26;98857.34;1605129;89;25723;-62
2022/11/10 04:18:41;;;;;;;34.05;16.57;;;;;;;8.74;86.05;98855.33;1605395;89;26162;-62
2022/11/10 04:21:07;;;;;;;36.98;15.98;;;;;;;8.76;86.00;98859.41;1605310;89;25668;-63
2022/11/10 04:23:34;;;;;;;32.93;16.82;;;;;;;8.80;85.87;98860.19;1604996;89;27493;-63
2022/11/10 04:26:29;;;;;;;33.25;16.25;;;;;;;8.85;85.76;98862.82;1605245;89;25624;-63
2022/11/10 04:28:59;;;;;;;31.40;14.15;;;;;;;8.89;85.65;98866.58;1605016;89;25673;-63
2022/11/10 04:31:29;;;;;;;32.90;16.35;;;;;;;8.91;85.65;98873.94;1605539;89;26356;-63
2022/11/10 04:33:57;;;;;;;32.60;16.48;;;;;;;8.90;85.82;98881.89;1605537;89;25451;-63
2022/11/10 04:36:29;;;;;;;25.68;12.30;;;;;;;8.90;85.73;98881.31;1605100;89;27437;-63
2022/11/10 04:38:56;;;;;;;30.15;14.98;;;;;;;8.89;85.84;98876.97;1605008;89;27282;-62
2022/11/10 04:41:24;;;;;;;35.65;16.67;;;;;;;8.87;85.86;98887.94;1605163;89;25673;-63
2022/11/10 04:43:51;;;;;;;35.63;17.32;;;;;;;8.90;85.70;98894.19;1605032;89;26726;-62
2022/11/10 04:46:33;;;;;;;31.20;14.85;;;;;;;8.91;85.69;98892.52;1605473;89;25561;-62
2022/11/10 04:49:00;;;;;;;33.08;15.53;;;;;;;8.95;85.57;98893.30;1605506;89;27399;-63
2022/11/10 04:51:30;;;;;;;32.40;14.95;;;;;;;8.98;85.54;98896.80;1605248;89;25525;-62
2022/11/10 04:53:57;;;;;;;36.00;17.62;;;;;;;9.01;85.57;98901.10;1605534;89;25452;-62
2022/11/10 04:56:25;;;;;;;33.30;16.10;;;;;;;9.03;85.47;98900.26;1604983;89;25743;-62
2022/11/10 04:58:54;;;;;;;33.78;16.27;;;;;;;9.07;85.34;98905.92;1605378;89;25486;-62
2022/11/10 05:01:25;;;;;;;33.55;15.83;;;;;;;9.10;85.30;98916.84;1605052;89;27423;-63
2022/11/10 05:03:54;;;;;;;34.78;17.05;;;;;;;9.10;85.34;98916.27;1605330;88;25680;-62
2022/11/10 05:06:21;;;;;;;38.13;18.67;;;;;;;9.10;85.50;98924.47;1605082;89;25646;-62
2022/11/10 05:08:48;;;;;;;38.83;18.48;;;;;;;9.07;85.57;98922.33;1605128;89;25756;-63
2022/11/10 05:11:15;;;;;;;38.38;17.60;;;;;;;9.06;85.65;98918.55;1605332;89;25479;-62
2022/11/10 05:13:43;;;;;;;38.65;18.12;;;;;;;9.03;85.93;98926.23;1605074;89;27427;-63
2022/11/10 05:16:11;;;;;;;35.10;16.93;;;;;;;9.01;85.91;98929.02;1605341;89;25700;-62
2022/11/10 05:18:38;;;;;;;39.90;18.57;;;;;;;9.00;86.15;98928.73;1605408;89;25527;-62
2022/11/10 05:21:05;;;;;;;40.55;19.50;;;;;;;9.03;86.06;98932.24;1604991;89;25797;-63
2022/11/10 05:23:37;;;;;;;38.75;19.02;;;;;;;9.06;85.96;98930.86;1602137;89;25460;-62
2022/11/10 05:26:06;;;;;;;36.95;18.32;;;;;;;9.07;85.94;98940.09;1600302;88;27384;-62
2022/11/10 05:28:33;;;;;;;36.93;18.25;;;;;;;9.07;86.09;98925.64;1600627;89;25680;-62
2022/11/10 05:31:00;;;;;;;38.63;19.67;;;;;;;9.08;86.08;98934.91;1600325;89;25452;-63
2022/11/10 05:33:27;;;;;;;34.30;17.50;;;;;;;9.07;86.51;98943.41;1600375;89;25897;-62
2022/11/10 05:35:53;;;;;;;40.35;19.05;;;;;;;9.08;86.45;98944.48;1600365;89;25649;-62
2022/11/10 05:38:19;;;;;;;39.15;19.17;;;;;;;9.10;86.41;98950.45;1600634;89;27511;-62
2022/11/10 05:40:47;;;;;;;39.25;19.02;;;;;;;9.13;86.29;98953.16;1600301;89;53329;-63
2022/11/10 05:43:14;;;;;;;38.83;18.77;;;;;;;9.13;86.37;98953.16;1600587;88;25702;-62
2022/11/10 05:45:40;;;;;;;39.92;20.37;;;;;;;9.12;86.49;98954.25;1600474;89;26189;-63
2022/11/10 05:48:07;;;;;;;40.15;19.40;;;;;;;9.11;86.58;98964.39;1600419;88;25713;-62
2022/11/10 05:50:34;;;;;;;38.30;19.77;;;;;;;9.13;86.75;98967.62;1600298;88;27476;-62
2022/11/10 05:53:00;;;;;;;36.03;18.27;;;;;;;9.12;87.03;98967.38;1600157;89;25494;-63
2022/11/10 05:55:29;;;;;;;44.42;20.62;;;;;;;9.10;87.23;98975.62;1600503;89;25714;-63
2022/11/10 05:57:56;;;;;;;43.30;21.65;;;;;;;9.10;87.13;98987.36;1600383;89;25705;-63
2022/11/10 06:00:27;;;;;;;44.23;20.50;;;;;;;9.12;87.09;98987.06;1600598;88;25530;-63
2022/11/10 06:03:10;;;;;;;42.20;19.95;;;;;;;9.12;87.38;98986.52;1600954;89;27559;-63
2022/11/10 06:05:36;;;;;;;44.93;21.15;;;;;;;9.11;87.31;98991.73;1600306;89;25894;-63
2022/11/10 06:08:05;;;;;;;41.77;20.02;;;;;;;9.13;87.33;99002.37;1600350;89;25528;-64
2022/11/10 06:10:34;;;;;;;33.13;14.93;;;;;;;9.14;87.38;99002.08;1600762;89;25750;-64
2022/11/10 06:13:02;;;;;;;39.75;20.00;;;;;;;9.13;87.80;99010.00;1600672;89;25649;-64
2022/11/10 06:15:29;;;;;;;39.83;17.45;;;;;;;9.12;87.47;99008.93;1600496;88;27443;-64
2022/11/10 06:17:57;;;;;;;34.85;16.73;;;;;;;9.09;88.06;99019.91;1600559;89;25660;-64
2022/11/10 06:20:24;;;;;;;38.63;18.70;;;;;;;9.07;88.04;99019.95;1600574;88;25463;-65
2022/11/10 06:23:06;;;;;;;30.68;15.45;;;;;;;9.04;88.17;99022.16;1602043;88;25711;-65
2022/11/10 06:25:35;;;;;;;39.00;18.40;;;;;;;9.01;88.61;99021.95;1607290;89;25648;-65
2022/11/10 06:28:03;;;;;;;37.90;17.77;;;;;;;8.99;88.40;99032.36;1607260;88;27509;-65
2022/11/10 06:30:33;;;;;;;37.98;17.40;;;;;;;8.96;89.06;99034.31;1607405;88;25726;-65
2022/11/10 06:33:00;;;;;;;35.95;17.42;;;;;;;8.94;88.79;99040.07;1607744;89;25657;-65
2022/11/10 06:35:28;;;;;;;36.33;17.15;;;;;;;8.94;88.83;99034.61;1607174;89;26605;-65
2022/11/10 06:38:06;;;;;;;36.05;17.15;;;;;;;8.94;88.82;99041.44;1607248;89;25719;-65
2022/11/10 06:40:33;;;;;;;33.78;17.27;;;;;;;8.95;88.83;99046.36;1607266;89;27441;-66
2022/11/10 06:43:00;;;;;;;34.78;16.93;;;;;;;8.95;88.79;99041.69;1607163;89;25637;-65
2022/11/10 06:45:27;;;;;;;32.98;15.35;;;;;;;8.96;88.78;99051.53;1607420;88;25458;-65
2022/11/10 06:48:10;;;;;;;30.60;13.50;;;;;;;8.98;88.95;99053.98;1607196;89;25708;-65
2022/11/10 06:50:37;;;;;;;35.23;17.12;;;;;;;8.97;89.35;99060.53;1607691;88;25488;-65
2022/11/10 06:53:03;;;;;;;36.40;16.73;;;;;;;8.99;89.10;99065.16;1607481;89;27356;-66
2022/11/10 06:55:31;;;;;;;36.23;17.20;;;;;;;8.97;89.26;99075.02;1607433;89;25521;-66
2022/11/10 06:57:58;;;;;;;44.42;21.45;;;;;;;9.00;89.26;99071.70;1607639;89;25717;-65
2022/11/10 07:00:26;;;;;;;36.23;18.10;;;;;;;9.01;89.06;99076.05;1607371;88;25889;-66
2022/11/10 07:03:06;;;;;;;35.17;16.90;;;;;;;9.04;89.00;99075.47;1607312;89;25455;-66
2022/11/10 07:05:35;;;;;;;32.93;16.12;;;;;;;9.06;88.97;99083.38;1607529;89;27410;-65
2022/11/10 07:08:08;;;;;;;30.68;13.70;;;;;;;9.09;89.09;99081.97;1607476;89;25713;-66
2022/11/10 07:10:36;;;;;;;38.10;17.40;;;;;;;9.10;89.17;99089.09;1607573;89;25451;-66
2022/11/10 07:13:04;;;;;;;35.58;17.10;;;;;;;9.11;89.10;99097.54;1607191;89;25736;-66
2022/11/10 07:15:32;;;;;;;38.58;17.50;;;;;;;9.10;89.11;99100.81;1607511;89;25540;-66
2022/11/10 07:17:59;;;;;;;33.60;17.00;;;;;;;9.11;89.19;99109.30;1607266;88;27377;-66
2022/11/10 07:20:27;;;;;;;33.78;17.10;;;;;;;9.14;89.13;99112.81;1607215;89;25523;-66
2022/11/10 07:22:59;;;;;;;32.95;16.97;;;;;;;9.16;89.23;99117.99;1607773;88;25790;-66
2022/11/10 07:25:26;;;;;;;37.63;18.67;;;;;;;9.20;89.05;99122.30;1607673;89;25752;-66
2022/11/10 07:27:58;;;;;;;36.33;17.85;;;;;;;9.21;88.94;99116.55;1607715;89;25705;-66
2022/11/10 07:30:26;;;;;;;37.13;17.37;;;;;;;9.24;88.98;99121.43;1607752;89;28082;-66
2022/11/10 07:33:03;;;;;;;29.85;14.78;;;;;;;9.25;88.84;99118.97;1607341;89;25507;-65
2022/11/10 07:35:32;;;;;;;34.25;17.00;;;;;;;9.23;89.10;99121.17;1607542;89;25520;-65
2022/11/10 07:38:02;;;;;;;32.53;16.57;;;;;;;9.21;89.07;99106.97;1607725;89;25772;-66
2022/11/10 07:40:30;;;;;;;35.43;18.25;;;;;;;9.24;89.07;99124.16;1607732;89;25636;-66
2022/11/10 07:42:56;;;;;;;29.75;15.15;;;;;;;9.23;89.18;99123.91;1607304;89;27412;-66
2022/11/10 07:45:23;;;;;;;38.67;17.62;;;;;;;9.25;89.47;99126.36;1607176;88;25653;-66
2022/11/10 07:47:50;;;;;;;31.95;16.45;;;;;;;9.28;89.21;99129.33;1607347;89;25528;-66
2022/11/10 07:50:18;;;;;;;36.65;18.27;;;;;;;9.31;89.32;99132.02;1607623;89;26251;-65
2022/11/10 07:52:44;;;;;;;31.35;15.30;;;;;;;9.33;89.34;99144.03;1607614;89;25727;-66
2022/11/10 07:55:11;;;;;;;40.55;19.37;;;;;;;9.38;89.70;99152.98;1607578;88;27508;-66
2022/11/10 07:57:37;;;;;;;39.75;19.00;;;;;;;9.40;89.42;99167.73;1607262;88;25670;-66
2022/11/10 08:00:04;;;;;;;40.85;20.48;;;;;;;9.44;89.28;99165.23;1607669;88;25690;-66
2022/11/10 08:02:39;;;;;;;57.78;29.92;;;;;;;9.49;89.34;99165.97;1607509;89;25775;-66
2022/11/10 08:05:20;;;;;;;412.77;150.00;;;;;;;9.51;89.06;99172.52;1607342;89;25716;-65
2022/11/10 08:08:00;;;;;;;430.85;171.77;;;;;;;9.52;89.00;99175.51;1607635;89;27650;-66
2022/11/10 08:10:36;;;;;;;215.40;131.82;;;;;;;9.53;89.04;99176.58;1607435;88;25466;-66
2022/11/10 08:13:11;;;;;;;213.00;61.42;;;;;;;9.55;89.16;99185.86;1607762;89;25494;-66
2022/11/10 08:15:38;;;;;;;119.35;37.70;;;;;;;9.56;88.87;99188.88;1607567;88;26458;-65
2022/11/10 08:18:23;;;;;;;98.47;31.17;;;;;;;9.58;88.76;99186.65;1607585;89;25709;-65
2022/11/10 08:20:49;;;;;;;144.60;39.53;;;;;;;9.54;88.67;99187.81;1607570;89;27518;-65
2022/11/10 08:23:17;;;;;;;145.80;37.23;;;;;;;9.51;88.76;99183.47;1606766;88;25539;-65
2022/11/10 08:25:45;;;;;;;104.23;32.03;;;;;;;9.51;89.10;99187.56;1600586;88;25657;-65
2022/11/10 08:28:15;;;;;;;161.32;43.23;;;;;;;9.51;88.95;99181.55;1600368;89;26650;-65
2022/11/10 08:30:45;;;;;;;121.15;37.48;;;;;;;9.54;89.08;99197.38;1600819;89;25655;-65
2022/11/10 08:33:14;;;;;;;110.57;32.33;;;;;;;9.57;89.02;99201.45;1600610;88;28235;-65
2022/11/10 08:35:44;;;;;;;104.87;32.73;;;;;;;9.58;89.04;99211.84;1600610;89;25702;-65
2022/11/10 08:38:18;;;;;;;141.03;38.35;;;;;;;9.61;88.91;99208.49;1600791;88;25548;-66
2022/11/10 08:40:46;;;;;;;166.35;44.75;;;;;;;9.67;89.09;99205.95;1599827;89;25821;-65
2022/11/10 08:43:14;;;;;;;123.15;38.53;;;;;;;9.73;88.95;99214.94;1600537;88;25495;-65
2022/11/10 08:45:43;;;;;;;163.22;44.35;;;;;;;9.79;88.67;99211.81;1600517;89;27523;-65
2022/11/10 08:48:19;;;;;;;103.95;34.25;;;;;;;9.86;88.37;99223.78;1600664;89;25760;-65
2022/11/10 08:50:48;;;;;;;91.35;29.35;;;;;;;9.93;88.35;99231.61;1600365;89;25716;-65
2022/11/10 08:53:21;;;;;;;181.78;48.30;;;;;;;9.96;87.96;99228.85;1600376;88;25697;-65
2022/11/10 08:55:49;;;;;;;130.37;39.45;;;;;;;10.04;88.01;99226.26;1600723;88;25657;-66
2022/11/10 08:58:20;;;;;;;43.28;17.90;;;;;;;10.19;88.32;99235.92;1600319;88;27466;-66
2022/11/10 09:00:47;;;;;;;103.50;35.28;;;;;;;10.27;87.53;99231.13;1600557;88;25523;-66
2022/11/10 09:03:38;;;;;;;83.90;30.08;;;;;;;10.30;87.47;99230.53;1600731;88;25745;-66
2022/11/10 09:06:05;;;;;;;122.60;37.67;;;;;;;10.32;87.15;99239.82;1593279;89;26310;-66
2022/11/10 09:08:32;;;;;;;114.95;37.23;;;;;;;10.33;87.16;99244.20;1593132;90;25610;-66
2022/11/10 09:11:05;;;;;;;91.53;32.40;;;;;;;10.36;87.41;99255.94;1592744;90;27507;-66
2022/11/10 09:13:31;;;;;;;78.30;27.37;;;;;;;10.35;87.33;99261.97;1593060;90;25661;-66
2022/11/10 09:16:04;;;;;;;66.85;25.02;;;;;;;10.32;87.09;99263.93;1593513;90;25432;-66
2022/11/10 09:18:30;;;;;;;121.87;36.45;;;;;;;10.33;87.12;99262.02;1592851;90;27571;-66
2022/11/10 09:20:57;;;;;;;101.35;33.88;;;;;;;10.37;87.33;99267.97;1593246;90;25761;-66
2022/11/10 09:23:25;;;;;;;101.78;35.08;;;;;;;10.40;87.14;99272.83;1591297;88;27532;-66
2022/11/10 09:25:54;;;;;;;73.00;29.15;;;;;;;10.46;87.13;99277.73;1615080;88;25859;-67
2022/11/10 09:28:22;;;;;;;66.90;27.58;;;;;;;10.49;87.35;99279.88;1615599;88;25820;-66
2022/11/10 09:30:51;;;;;;;67.37;28.02;;;;;;;10.48;86.60;99282.34;1620392;88;25756;-66
2022/11/10 09:33:17;;;;;;;62.88;26.35;;;;;;;10.50;87.02;99289.72;1656234;86;25716;-66
2022/11/10 09:35:44;;;;;;;69.32;27.10;;;;;;;10.52;86.63;99292.16;1659893;86;27493;-66
2022/11/10 09:38:11;;;;;;;53.42;23.87;;;;;;;10.54;86.58;99293.48;1621366;87;25687;-67
2022/11/10 09:40:59;;;;;;;63.98;27.37;;;;;;;10.55;86.48;99301.16;1590318;90;25743;-67
2022/11/10 09:43:31;;;;;;;76.25;29.10;;;;;;;10.57;86.37;99299.48;1594681;89;25897;-67
2022/11/10 09:46:02;;;;;;;91.53;32.93;;;;;;;10.54;86.28;99304.44;1660691;86;25689;-67
2022/11/10 09:48:36;;;;;;;75.90;29.55;;;;;;;10.52;86.57;99308.05;1595305;90;28157;-67
2022/11/10 09:51:23;;;;;;;78.55;29.50;;;;;;;10.49;86.72;99310.56;1661545;84;25722;-67
2022/11/10 09:54:03;;;;;;;95.30;33.55;;;;;;;10.48;86.63;99308.37;1660149;86;25462;-67
2022/11/10 09:56:36;;;;;;;81.45;31.15;;;;;;;10.46;86.44;99297.45;1661123;86;25829;-67
2022/11/10 09:59:28;;;;;;;63.33;24.82;;;;;;;10.50;86.76;99310.27;1595258;90;25481;-67
2022/11/10 10:02:22;;;;;;;74.58;28.70;;;;;;;10.52;86.73;99313.53;1660341;86;27370;-67
2022/11/10 10:05:15;;;;;;;61.37;26.17;;;;;;;10.59;86.58;99320.00;1660820;86;25633;-67
2022/11/10 10:08:10;;;;;;;70.70;28.15;;;;;;;10.66;86.77;99312.78;1657019;86;25691;-67
2022/11/10 10:10:50;;;;;;;64.32;26.87;;;;;;;10.70;86.68;99326.14;1594974;90;25848;-67
2022/11/10 10:13:28;;;;;;;54.70;22.87;;;;;;;10.76;86.13;99324.95;1624054;87;25656;-67
2022/11/10 10:16:23;;;;;;;81.97;30.05;;;;;;;10.80;85.61;99334.77;1622584;88;28281;-67
2022/11/10 10:19:19;;;;;;;57.05;22.58;;;;;;;10.78;85.38;99330.13;1622517;88;25734;-67
2022/11/10 10:22:03;;;;;;;60.00;23.87;;;;;;;10.74;85.48;99334.02;1622623;88;25489;-67
2022/11/10 10:24:32;;;;;;;65.25;26.95;;;;;;;10.73;85.71;99341.98;1645147;87;25816;-67
2022/11/10 10:27:07;;;;;;;57.27;24.12;;;;;;;10.70;85.82;99337.10;1647399;87;25688;-67
2022/11/10 10:29:48;;;;;;;61.35;25.80;;;;;;;10.72;85.87;99337.63;1647757;86;28196;-67
2022/11/10 10:32:16;;;;;;;85.75;32.75;;;;;;;10.73;85.85;99340.62;1647281;87;25522;-67
2022/11/10 10:34:45;;;;;;;55.60;25.50;;;;;;;10.76;85.78;99343.31;1647555;87;25700;-67
2022/11/10 10:37:31;;;;;;;59.70;25.05;;;;;;;10.78;85.51;99346.03;1594756;90;25864;-67
2022/11/10 10:39:58;;;;;;;53.40;23.30;;;;;;;10.82;85.42;99342.70;1618478;88;25678;-67
2022/11/10 10:42:36;;;;;;;60.15;26.25;;;;;;;10.85;85.61;99352.49;1619457;88;27481;-67
2022/11/10 10:45:25;;;;;;;82.88;32.70;;;;;;;10.91;85.30;99352.67;1619767;88;25783;-67
2022/11/10 10:47:56;;;;;;;59.85;27.07;;;;;;;11.02;85.23;99357.98;1620012;88;25618;-67
2022/11/10 10:50:35;;;;;;;45.67;20.43;;;;;;;11.10;85.24;99357.31;1619823;88;25720;-67
2022/11/10 10:53:12;;;;;;;44.70;21.17;;;;;;;11.12;85.03;99363.33;1620066;88;25494;-67
2022/11/10 10:55:53;;;;;;;67.58;27.80;;;;;;;11.14;85.16;99361.08;1619763;88;27510;-67
2022/11/10 10:58:30;;;;;;;48.73;22.52;;;;;;;11.19;84.87;99358.02;1619651;88;25611;-67
2022/11/10 11:01:17;;;;;;;56.90;24.87;;;;;;;11.23;84.49;99360.41;1619594;88;25704;-67
2022/11/10 11:03:52;;;;;;;59.00;24.77;;;;;;;11.25;84.62;99362.27;1614793;88;26280;-67
2022/11/10 11:06:26;;;;;;;52.65;23.52;;;;;;;11.31;84.58;99367.13;1620033;88;25425;-67
2022/11/10 11:08:58;;;;;;;41.55;21.85;;;;;;;11.38;84.29;99361.52;1619725;88;28095;-67
2022/11/10 11:11:29;;;;;;;50.15;22.95;;;;;;;11.48;84.46;99362.41;1619763;88;25810;-67
2022/11/10 11:14:22;;;;;;;50.67;22.80;;;;;;;11.56;83.57;99364.48;1618795;88;25736;-67
2022/11/10 11:17:13;;;;;;;44.63;21.17;;;;;;;11.60;83.44;99362.74;1618359;88;25779;-67
2022/11/10 11:19:40;;;;;;;;;;;;;;;11.69;82.77;99371.11;1622075;88;25700;-67
2022/11/10 11:22:42;;;;;;;51.53;23.15;;;;;;;11.70;82.85;99373.28;1619893;88;27406;-67
2022/11/10 11:25:23;;;;;;;60.75;25.80;;;;;;;11.73;82.70;99372.67;1616556;88;25728;-68
2022/11/10 11:28:11;;;;;;;;;;;;;;;11.88;82.46;99373.76;1613689;89;25470;-67
2022/11/10 11:31:29;;;;;;;43.23;20.27;;;;;;;12.07;82.20;99375.63;1611441;89;25984;-67
2022/11/10 11:34:27;;;;;;;51.48;25.10;;;;;;;12.19;82.26;99381.14;1611230;89;25695;-67
2022/11/10 11:37:17;;;;;;;52.85;24.87;;;;;;;12.41;81.54;99381.21;1611817;89;27340;-67
2022/11/10 11:40:01;;;;;;;44.80;22.00;;;;;;;12.61;81.46;99379.71;1611984;89;25652;-67
2022/11/10 11:42:48;;;;;;;38.38;19.52;;;;;;;12.75;80.50;99375.55;1611442;89;25643;-67
2022/11/10 11:45:58;;;;;;;42.33;20.57;;;;;;;12.84;79.96;99376.41;1611650;89;25757;-67
2022/11/10 11:48:42;;;;;;;45.45;21.27;;;;;;;12.93;79.43;99377.30;1611785;89;25628;-67
2022/11/10 11:51:28;;;;;;;41.90;21.37;;;;;;;13.11;79.55;99378.81;1612316;88;28254;-67
2022/11/10 11:54:18;;;;;;;42.85;22.37;;;;;;;13.25;79.31;99389.76;1611778;89;25493;-68